createdAt,value
2019-04-23T00:03:05.501Z,44.55
2019-04-23T00:05:51.452Z,44.79
2019-04-23T00:08:17.521Z,44.97
2019-04-23T00:10:42.553Z,45.16
2019-04-23T00:13:24.768Z,45.24
2019-04-23T00:16:02.997Z,45.30
2019-04-23T00:18:36.826Z,45.55
2019-04-23T00:21:38.146Z,45.73
2019-04-23T00:24:19.271Z,45.74
2019-04-23T00:26:42.949Z,45.76
2019-04-23T00:29:11.709Z,46.16
2019-04-23T00:31:44.281Z,46.13
2019-04-23T00:34:15.803Z,46.19
2019-04-23T00:36:51.605Z,46.09
2019-04-23T00:39:23.451Z,46.21
2019-04-23T00:41:54.639Z,46.31
2019-04-23T00:44:37.780Z,46.43
2019-04-23T00:46:57.485Z,46.43
2019-04-23T00:49:37.085Z,46.70
2019-04-23T00:52:09.453Z,46.92
2019-04-23T00:54:32.662Z,46.98
2019-04-23T00:57:07.487Z,47.03
2019-04-23T00:59:52.196Z,47.02
2019-04-23T01:02:14.193Z,46.99
2019-04-23T01:04:51.029Z,47.22
2019-04-23T01:07:22.458Z,47.25
2019-04-23T01:10:06.159Z,47.35
2019-04-23T01:12:36.142Z,47.32
2019-04-23T01:15:02.509Z,47.38
2019-04-23T01:17:39.448Z,47.34
2019-04-23T01:20:09.740Z,47.24
2019-04-23T01:22:23.244Z,47.40
2019-04-23T01:25:19.500Z,47.50
2019-04-23T01:28:11.039Z,47.47
2019-04-23T01:30:49.229Z,47.50
2019-04-23T01:33:29.604Z,47.79
2019-04-23T01:36:03.162Z,47.78
2019-04-23T01:38:31.459Z,47.78
2019-04-23T01:40:53.819Z,47.73
2019-04-23T01:43:30.239Z,47.86
2019-04-23T01:46:01.034Z,47.77
2019-04-23T01:48:39.181Z,48.02
2019-04-23T01:50:56.030Z,48.03
2019-04-23T01:56:13.983Z,48.24
2019-04-23T02:06:28.134Z,48.50
2019-04-23T02:08:56.790Z,48.49
2019-04-23T02:11:28.585Z,48.56
2019-04-23T02:13:55.333Z,48.69
2019-04-23T02:16:30.122Z,48.77
2019-04-23T02:19:03.647Z,48.89
2019-04-23T02:21:35.252Z,48.93
2019-04-23T02:24:09.051Z,49.08
2019-04-23T02:26:39.875Z,49.33
2019-04-23T02:29:15.945Z,49.46
2019-04-23T02:31:58.252Z,49.31
2019-04-23T02:34:35.831Z,49.58
2019-04-23T02:36:57.294Z,49.88
2019-04-23T02:39:31.184Z,49.85
2019-04-23T02:42:07.412Z,49.51
2019-04-23T02:44:24.245Z,49.89
2019-04-23T02:47:10.347Z,49.96
2019-04-23T02:54:46.677Z,50.56
2019-04-23T02:57:09.349Z,50.75
2019-04-23T03:04:52.228Z,51.33
2019-04-23T03:07:34.293Z,51.51
2019-04-23T03:12:31.850Z,51.57
2019-04-23T03:15:20.981Z,51.61
2019-04-23T03:18:11.929Z,51.62
2019-04-23T03:20:53.189Z,51.90
2019-04-23T03:23:25.262Z,52.05
2019-04-23T03:26:01.932Z,52.08
2019-04-23T03:28:49.410Z,52.38
2019-04-23T03:41:27.886Z,52.37
2019-04-23T03:43:42.416Z,52.48
2019-04-23T03:48:51.227Z,52.43
2019-04-23T03:51:26.411Z,52.55
2019-04-23T03:54:03.997Z,52.54
2019-04-23T03:59:27.139Z,52.39
2019-04-23T04:01:37.656Z,52.62
2019-04-23T04:06:48.103Z,53.07
2019-04-23T04:09:33.163Z,53.17
2019-04-23T04:11:42.171Z,53.25
2019-04-23T04:29:40.350Z,52.57
2019-04-23T04:32:00.569Z,52.49
2019-04-23T04:35:07.396Z,52.52
2019-04-23T04:37:35.560Z,52.32
2019-04-23T04:40:07.182Z,52.29
2019-04-23T04:47:36.645Z,52.24
2019-04-23T04:49:59.739Z,52.11
2019-04-23T04:52:46.969Z,51.99
2019-04-23T04:55:00.108Z,52.00
2019-04-23T04:57:40.254Z,51.90
2019-04-23T05:00:13.318Z,51.56
2019-04-23T05:02:53.887Z,51.63
2019-04-23T05:05:37.983Z,51.58
2019-04-23T05:07:48.207Z,51.76
2019-04-23T05:10:28.853Z,51.66
2019-04-23T05:12:52.195Z,51.47
2019-04-23T05:15:17.228Z,51.20
2019-04-23T05:25:47.882Z,50.81
2019-04-23T05:28:28.458Z,50.66
2019-04-23T05:30:52.114Z,50.64
2019-04-23T05:33:22.384Z,50.41
2019-04-23T05:36:15.563Z,50.26
2019-04-23T05:38:37.701Z,50.10
2019-04-23T05:41:03.741Z,49.98
2019-04-23T05:43:32.399Z,50.02
2019-04-23T05:46:09.631Z,49.41
2019-04-23T05:48:37.716Z,49.33
2019-04-23T05:51:14.260Z,49.18
2019-04-23T05:53:42.509Z,49.08
2019-04-23T05:56:15.549Z,49.11
2019-04-23T05:58:48.944Z,48.94
2019-04-23T06:06:37.523Z,48.62
2019-04-23T06:09:09.162Z,48.47
2019-04-23T06:11:47.027Z,47.93
2019-04-23T06:14:17.361Z,47.82
2019-04-23T06:16:54.833Z,47.84
2019-04-23T06:24:29.273Z,47.41
2019-04-23T06:36:58.794Z,46.61
2019-04-23T06:39:36.726Z,46.57
2019-04-23T06:42:03.876Z,46.36
2019-04-23T06:47:12.952Z,45.82
2019-04-23T06:49:49.473Z,45.81
2019-04-23T06:52:18.979Z,45.50
2019-04-23T06:54:56.210Z,45.09
2019-04-23T06:59:52.658Z,44.90
2019-04-23T07:02:30.874Z,43.72
2019-04-23T07:05:03.300Z,38.74
2019-04-23T07:07:46.580Z,36.40
2019-04-23T07:10:05.490Z,35.13
2019-04-23T07:12:36.486Z,33.36
2019-04-23T07:15:25.084Z,31.78
2019-04-23T07:17:34.804Z,31.77
2019-04-23T07:20:15.351Z,30.47
2019-04-23T07:22:46.828Z,29.93
2019-04-23T07:25:17.591Z,28.81
2019-04-23T07:27:53.118Z,28.55
2019-04-23T07:30:24.096Z,28.25
2019-04-23T07:32:57.251Z,27.04
2019-04-23T07:35:35.865Z,26.78
2019-04-23T07:38:20.668Z,26.65
2019-04-23T07:40:40.992Z,26.22
2019-04-23T07:43:23.400Z,26.35
2019-04-23T07:46:19.893Z,25.28
2019-04-23T07:48:43.737Z,25.19
2019-04-23T07:51:14.565Z,25.27
2019-04-23T07:53:53.508Z,25.37
2019-04-23T07:56:25.118Z,23.50
2019-04-23T07:58:58.316Z,23.74
2019-04-23T08:01:26.778Z,23.40
2019-04-23T08:04:18.239Z,23.56
2019-04-23T08:06:31.886Z,23.38
2019-04-23T08:09:06.278Z,23.01
2019-04-23T08:11:52.413Z,22.20
2019-04-23T08:14:02.121Z,23.19
2019-04-23T08:19:17.080Z,21.86
2019-04-23T08:21:40.210Z,21.53
2019-04-23T08:24:38.490Z,21.19
2019-04-23T08:27:18.129Z,21.38
2019-04-23T08:29:48.895Z,21.52
2019-04-23T08:32:19.462Z,21.86
2019-04-23T08:37:34.702Z,21.46
2019-04-23T08:40:04.731Z,21.78
2019-04-23T08:50:44.109Z,21.39
2019-04-23T08:55:53.670Z,20.53
2019-04-23T08:58:36.855Z,21.37
2019-04-23T09:01:00.601Z,21.13
2019-04-23T09:03:33.297Z,22.05
2019-04-23T09:06:06.148Z,21.29
2019-04-23T09:11:19.937Z,20.34
2019-04-23T09:16:09.031Z,19.43
2019-04-23T09:18:45.965Z,20.37
2019-04-23T09:21:14.066Z,20.83
2019-04-23T09:26:24.361Z,20.84
2019-04-23T09:29:17.302Z,21.77
2019-04-23T09:34:31.656Z,21.28
2019-04-23T09:37:06.342Z,22.08
2019-04-23T09:39:43.035Z,22.54
2019-04-23T09:42:38.405Z,22.79
2019-04-23T09:45:26.897Z,23.19
2019-04-23T09:48:11.068Z,23.68
2019-04-23T09:50:38.474Z,24.64
2019-04-23T09:55:41.641Z,26.03
2019-04-23T09:58:15.420Z,25.87
2019-04-23T10:00:51.514Z,26.32
2019-04-23T10:03:21.077Z,26.50
2019-04-23T10:05:49.060Z,26.59
2019-04-23T10:08:19.323Z,26.81
2019-04-23T10:10:47.078Z,27.27
2019-04-23T10:13:19.900Z,27.27
2019-04-23T10:15:52.103Z,26.95
2019-04-23T10:18:24.463Z,27.16
2019-04-23T10:20:54.417Z,26.83
2019-04-23T10:23:25.225Z,26.20
2019-04-23T10:25:56.363Z,26.62
2019-04-23T10:28:45.015Z,26.99
2019-04-23T10:31:14.640Z,27.08
2019-04-23T10:33:46.285Z,26.98
2019-04-23T10:36:19.907Z,26.93
2019-04-23T10:38:55.943Z,27.08
2019-04-23T10:41:22.531Z,27.45
2019-04-23T10:43:58.692Z,27.31
2019-04-23T10:47:32.090Z,27.33
2019-04-23T10:52:33.732Z,27.32
2019-04-23T10:55:06.640Z,27.66
2019-04-23T10:57:31.193Z,27.71
2019-04-23T11:00:12.595Z,27.32
2019-04-23T11:03:12.061Z,27.27
2019-04-23T11:05:37.739Z,27.01
2019-04-23T11:07:50.456Z,27.54
2019-04-23T11:10:23.542Z,28.01
2019-04-23T11:12:50.729Z,28.16
2019-04-23T11:18:08.840Z,28.03
2019-04-23T11:20:45.308Z,28.01
2019-04-23T11:23:01.561Z,27.86
2019-04-23T11:28:13.316Z,28.66
2019-04-23T11:31:09.379Z,28.47
2019-04-23T11:33:19.920Z,28.44
2019-04-23T11:36:19.900Z,28.37
2019-04-23T11:41:00.140Z,28.23
2019-04-23T11:46:19.437Z,28.55
2019-04-23T11:48:51.951Z,28.57
2019-04-23T11:56:32.525Z,28.69
2019-04-23T11:58:44.635Z,28.71
2019-04-23T12:04:48.056Z,28.91
2019-04-23T12:07:26.386Z,28.36
2019-04-23T12:10:07.646Z,28.57
2019-04-23T12:15:03.514Z,29.25
2019-04-23T12:17:45.997Z,29.02
2019-04-23T12:20:14.860Z,29.21
2019-04-23T12:22:51.782Z,29.10
2019-04-23T12:25:32.852Z,29.03
2019-04-23T12:27:59.751Z,29.17
2019-04-23T12:30:25.233Z,29.12
2019-04-23T12:35:24.018Z,29.16
2019-04-23T12:40:44.217Z,28.91
2019-04-23T12:43:17.338Z,28.70
2019-04-23T12:45:42.489Z,28.71
2019-04-23T12:55:57.389Z,28.84
2019-04-23T12:58:26.932Z,28.87
2019-04-23T13:01:00.504Z,28.81
2019-04-23T13:05:59.257Z,28.36
2019-04-23T13:11:13.974Z,28.71
2019-04-23T13:13:50.300Z,28.94
2019-04-23T13:16:16.368Z,28.91
2019-04-23T13:18:52.472Z,28.50
2019-04-23T13:21:46.734Z,28.44
2019-04-23T13:24:20.548Z,28.21
2019-04-23T13:26:44.550Z,28.17
2019-04-23T13:29:34.527Z,28.09
2019-04-23T13:31:56.789Z,28.14
2019-04-23T13:34:42.860Z,28.12
2019-04-23T13:37:00.708Z,28.18
2019-04-23T13:39:41.805Z,27.85
2019-04-23T13:42:15.960Z,27.17
2019-04-23T13:44:43.891Z,27.41
2019-04-23T13:47:25.738Z,27.83
2019-04-23T13:49:55.246Z,28.18
2019-04-23T13:52:43.268Z,27.98
2019-04-23T13:55:04.371Z,27.77
2019-04-23T13:59:57.834Z,27.00
2019-04-23T14:02:34.487Z,27.03
2019-04-23T14:05:26.767Z,26.68
2019-04-23T14:07:56.519Z,26.95
2019-04-23T14:10:29.471Z,26.96
2019-04-23T14:15:42.814Z,26.92
2019-04-23T14:18:22.766Z,26.91
2019-04-23T14:20:31.600Z,26.94
2019-04-23T14:25:50.552Z,27.29
2019-04-23T14:30:59.151Z,26.82
2019-04-23T14:33:17.723Z,26.61
2019-04-23T14:35:45.901Z,26.80
2019-04-23T14:43:22.517Z,26.84
2019-04-23T14:46:38.513Z,26.57
2019-04-23T14:48:51.787Z,26.64
2019-04-23T14:51:32.148Z,26.92
2019-04-23T14:53:48.482Z,27.21
2019-04-23T14:59:04.394Z,27.11
2019-04-23T15:03:57.644Z,27.19
2019-04-23T15:06:39.871Z,27.55
2019-04-23T15:09:19.759Z,27.57
2019-04-23T15:11:48.590Z,27.72
2019-04-23T15:14:11.988Z,27.64
2019-04-23T15:16:43.102Z,27.84
2019-04-23T15:22:04.652Z,27.98
2019-04-23T15:24:26.005Z,28.19
2019-04-23T15:29:20.135Z,28.65
2019-04-23T15:32:13.810Z,28.77
2019-04-23T15:34:48.896Z,29.06
2019-04-23T15:37:20.379Z,29.31
2019-04-23T15:39:50.508Z,29.78
2019-04-23T15:42:16.722Z,30.11
2019-04-23T15:44:48.802Z,30.12
2019-04-23T15:47:33.034Z,29.92
2019-04-23T15:49:57.424Z,30.00
2019-04-23T15:52:18.928Z,29.98
2019-04-23T15:54:57.002Z,30.43
2019-04-23T15:57:40.181Z,30.56
2019-04-23T15:59:55.995Z,30.67
2019-04-23T16:01:59.911Z,30.31
2019-04-23T16:04:29.794Z,30.36
2019-04-23T16:07:02.350Z,30.33
2019-04-23T16:10:14.448Z,30.31
2019-04-23T16:12:31.810Z,30.40
2019-04-23T16:17:37.075Z,30.72
2019-04-23T16:20:27.292Z,30.77
2019-04-23T16:22:44.421Z,31.24
2019-04-23T16:25:17.472Z,31.47
2019-04-23T16:27:59.089Z,31.70
2019-04-23T16:36:19.918Z,32.11
2019-04-23T16:41:07.689Z,32.50
2019-04-23T16:46:11.823Z,32.55
2019-04-23T16:48:53.244Z,32.71
2019-04-23T16:51:29.676Z,32.83
2019-04-23T16:53:46.329Z,32.94
2019-04-23T16:58:54.818Z,33.04
2019-04-23T17:01:35.363Z,32.97
2019-04-23T17:03:56.430Z,33.22
2019-04-23T17:06:29.328Z,33.24
2019-04-23T17:11:49.066Z,33.36
2019-04-23T17:14:09.870Z,33.55
2019-04-23T17:16:36.033Z,33.55
2019-04-23T17:19:13.300Z,33.48
2019-04-23T17:21:38.485Z,33.61
2019-04-23T17:24:21.175Z,33.89
2019-04-23T17:26:46.118Z,34.05
2019-04-23T17:31:45.356Z,34.23
2019-04-23T17:34:30.484Z,34.43
2019-04-23T17:37:13.616Z,34.56
2019-04-23T17:40:18.161Z,34.68
2019-04-23T17:48:34.965Z,34.83
2019-04-23T17:51:10.992Z,35.19
2019-04-23T17:53:56.175Z,35.31
2019-04-23T17:58:52.531Z,35.65
2019-04-23T18:01:20.175Z,35.96
2019-04-23T18:03:55.605Z,36.03
2019-04-23T18:09:00.339Z,36.16
2019-04-23T18:14:02.688Z,36.63
2019-04-23T18:16:40.757Z,36.60
2019-04-23T18:19:07.735Z,36.97
2019-04-23T18:22:01.830Z,37.27
2019-04-23T18:24:56.081Z,37.62
2019-04-23T18:27:19.153Z,37.63
2019-04-23T18:30:11.750Z,37.77
2019-04-23T18:33:43.876Z,38.32
2019-04-23T18:38:18.543Z,38.74
2019-04-23T18:40:58.900Z,38.90
2019-04-23T18:45:54.024Z,39.22
2019-04-23T18:51:05.211Z,39.83
2019-04-23T18:56:06.532Z,40.72
2019-04-23T18:58:52.183Z,40.66
2019-04-23T19:04:05.754Z,40.78
2019-04-23T19:06:41.133Z,40.82
2019-04-23T19:10:11.068Z,40.96
2019-04-23T19:12:44.398Z,40.89
2019-04-23T19:15:13.903Z,41.07
2019-04-23T19:20:35.330Z,41.59
2019-04-23T19:22:53.045Z,41.58
2019-04-23T19:25:23.299Z,41.54
2019-04-23T19:30:37.052Z,42.40
2019-04-23T19:33:25.390Z,42.69
2019-04-23T19:40:56.794Z,43.90
2019-04-23T19:43:25.157Z,44.41
2019-04-23T19:46:03.548Z,44.78
2019-04-23T19:48:33.488Z,45.08
2019-04-23T19:51:02.713Z,45.06
2019-04-23T19:53:44.980Z,45.21
2019-04-23T20:01:21.067Z,45.19
2019-04-23T20:06:19.332Z,45.55
2019-04-23T20:11:21.802Z,46.01
2019-04-23T20:16:30.182Z,46.47
2019-04-23T20:19:10.077Z,46.92
2019-04-23T20:21:30.567Z,47.21
2019-04-23T20:26:23.516Z,47.40
2019-04-23T20:37:12.906Z,47.77
2019-04-23T20:39:50.650Z,47.97
2019-04-23T20:45:06.080Z,48.46
2019-04-23T20:47:30.745Z,48.77
2019-04-23T20:50:03.418Z,48.95
2019-04-23T20:52:22.168Z,49.28
2019-04-23T20:55:02.077Z,49.65
2019-04-23T20:57:55.324Z,49.97
2019-04-23T21:00:43.247Z,50.28
2019-04-23T21:05:36.728Z,50.59
2019-04-23T21:13:29.434Z,51.48
2019-04-23T21:15:52.631Z,51.29
2019-04-23T21:18:22.045Z,51.60
2019-04-23T21:20:50.100Z,51.87
2019-04-23T21:23:17.691Z,52.10
2019-04-23T21:25:52.565Z,52.15
2019-04-23T21:28:40.197Z,52.54
2019-04-23T21:31:22.832Z,52.70
2019-04-23T21:34:05.799Z,52.55
2019-04-23T21:36:51.077Z,52.56
2019-04-23T21:39:53.522Z,52.78
2019-04-23T21:42:24.140Z,53.08
2019-04-23T21:45:28.531Z,52.94
2019-04-23T21:48:06.532Z,53.37
2019-04-23T21:50:45.586Z,53.30
2019-04-23T21:53:04.497Z,53.58
2019-04-23T21:55:38.963Z,53.57
2019-04-23T21:58:07.550Z,53.56
2019-04-23T22:00:46.218Z,53.69
2019-04-23T22:03:11.758Z,53.86
2019-04-23T22:05:42.453Z,54.07
2019-04-23T22:10:45.616Z,54.36
2019-04-23T22:15:54.687Z,54.60
2019-04-23T22:18:12.916Z,55.15
2019-04-23T22:20:49.299Z,55.00
2019-04-23T22:23:18.330Z,54.98
2019-04-23T22:25:56.892Z,55.17
2019-04-23T22:28:18.050Z,55.00
2019-04-23T22:30:54.949Z,55.29
2019-04-23T22:33:26.784Z,55.49
2019-04-23T22:38:30.199Z,55.13
2019-04-23T22:44:02.448Z,55.27
2019-04-23T22:46:16.327Z,55.26
2019-04-23T22:48:51.298Z,55.26
2019-04-23T22:51:31.572Z,55.18
2019-04-23T22:53:52.303Z,55.34
2019-04-23T22:56:24.910Z,55.43
2019-04-23T22:58:56.359Z,55.34
2019-04-23T23:01:25.985Z,55.39
2019-04-23T23:04:04.977Z,55.16
2019-04-23T23:09:22.857Z,55.28
2019-04-23T23:11:49.073Z,55.29
2019-04-23T23:16:54.827Z,55.48
2019-04-23T23:21:58.241Z,55.81
2019-04-23T23:29:20.286Z,55.91
2019-04-23T23:32:17.241Z,55.74
2019-04-23T23:34:41.953Z,55.56
2019-04-23T23:39:49.574Z,55.46
2019-04-23T23:42:11.199Z,55.54
2019-04-23T23:44:58.300Z,55.59
2019-04-23T23:47:38.154Z,55.52
2019-04-23T23:49:54.522Z,55.84
2019-04-23T23:52:27.009Z,55.54
2019-04-23T23:54:52.931Z,55.23
2019-04-23T23:57:23.541Z,54.97
